createdAt,value
2016-04-13T04:43:49.491Z,21
2016-04-13T04:44:07.257Z,21
2016-04-13T04:44:25.538Z,20.9
2016-04-13T04:44:43.822Z,20.9
2016-04-13T04:45:01.947Z,20.9
2016-04-13T04:45:20.213Z,20.9
2016-04-13T04:45:38.480Z,20.9
2016-04-13T04:45:56.762Z,20.9
2016-04-13T04:46:15.027Z,20.8
2016-04-13T04:46:33.311Z,20.8
2016-04-13T04:46:51.593Z,20.8
2016-04-13T04:47:09.858Z,20.8
2016-04-13T04:47:28.140Z,20.8
2016-04-13T04:47:46.423Z,20.8
2016-04-13T04:48:04.688Z,20.8
2016-04-13T04:48:22.970Z,20.9
2016-04-13T04:48:41.270Z,20.8
2016-04-13T04:48:59.535Z,20.9
2016-04-13T04:49:17.816Z,20.9
2016-04-13T04:49:36.085Z,20.8
2016-04-13T04:49:54.366Z,20.8
2016-04-13T04:50:12.648Z,20.8
2016-04-13T04:50:30.929Z,20.8
2016-04-13T04:50:49.197Z,20.9
2016-04-13T04:51:07.494Z,20.8
2016-04-13T04:51:25.760Z,20.8
2016-04-13T04:51:44.090Z,20.8
2016-04-13T04:52:02.324Z,20.7
2016-04-13T04:52:20.621Z,20.8
2016-04-13T04:52:38.906Z,20.8
2016-04-13T04:52:57.171Z,20.8
2016-04-13T04:53:15.437Z,20.8
2016-04-13T04:53:33.751Z,20.7
2016-04-13T04:53:52.017Z,20.6
2016-04-13T04:54:10.314Z,20.5
2016-04-13T04:54:28.595Z,20.4
2016-04-13T04:54:46.848Z,20.5
2016-04-13T04:55:05.161Z,20.5
2016-04-13T04:55:23.426Z,20.4
2016-04-13T04:55:41.710Z,20.3
2016-04-13T04:55:59.992Z,20.2
2016-04-13T04:56:18.273Z,20.1
2016-04-13T04:56:36.557Z,20
2016-04-13T04:56:54.823Z,20
2016-04-13T04:57:13.104Z,19.9
2016-04-13T04:57:31.370Z,19.8
2016-04-13T04:57:49.670Z,19.8
2016-04-13T04:58:07.951Z,19.7
2016-04-13T04:58:26.216Z,19.8
2016-04-13T04:58:44.501Z,19.8
2016-04-13T04:59:02.782Z,19.8
2016-04-13T04:59:21.063Z,19.8
2016-04-13T04:59:39.331Z,19.9
2016-04-13T04:59:57.628Z,19.8
2016-04-13T05:00:15.925Z,19.8
2016-04-13T05:00:34.209Z,19.9
2016-04-13T05:00:52.474Z,19.9
2016-04-13T05:01:10.771Z,19.9
2016-04-13T05:01:29.068Z,20.1
2016-04-13T05:01:47.351Z,20.1
2016-04-13T05:02:05.617Z,20.2
2016-04-13T05:02:23.883Z,20.2
2016-04-13T05:02:42.167Z,20.3
2016-04-13T05:03:00.448Z,20.4
2016-04-13T05:03:18.745Z,20.5
2016-04-13T05:03:37.029Z,20.5
2016-04-13T05:03:55.311Z,20.6
2016-04-13T05:04:13.561Z,20.6
2016-04-13T05:04:31.891Z,20.5
2016-04-13T05:04:50.031Z,20.4
2016-04-13T05:05:08.313Z,20.3
2016-04-13T05:05:26.578Z,20.3
2016-04-13T05:05:44.909Z,20.3
2016-04-13T05:06:03.159Z,20.3
2016-04-13T05:06:21.425Z,20.5
2016-04-13T05:06:39.756Z,20.4
2016-04-13T05:06:57.990Z,20.3
2016-04-13T05:07:16.272Z,20.3
2016-04-13T05:07:34.586Z,20.4
2016-04-13T05:07:52.852Z,20.5
2016-04-13T05:08:11.149Z,20.4
2016-04-13T05:08:29.414Z,20.5
2016-04-13T05:08:47.699Z,20.4
2016-04-13T05:09:05.980Z,20.2
2016-04-13T05:09:24.089Z,20.3
2016-04-13T05:09:42.358Z,20.2
2016-04-13T05:10:00.623Z,20.2
2016-04-13T05:10:18.905Z,20.3
2016-04-13T05:10:37.189Z,20.3
2016-04-13T05:10:55.486Z,20.3
2016-04-13T05:11:13.767Z,20.3
2016-04-13T05:11:32.050Z,20.2
2016-04-13T05:11:50.347Z,20.3
2016-04-13T05:12:08.613Z,20.4
2016-04-13T05:12:26.878Z,20.4
2016-04-13T05:12:45.194Z,20.5
2016-04-13T05:13:03.460Z,20.5
2016-04-13T05:13:21.756Z,20.4
2016-04-13T05:13:40.024Z,20.5
2016-04-13T05:13:58.290Z,20.6
2016-04-13T05:14:16.571Z,20.6
2016-04-13T05:14:34.871Z,20.6
2016-04-13T05:14:53.136Z,20.6
2016-04-13T05:15:11.418Z,20.6
2016-04-13T05:15:29.683Z,20.6
2016-04-13T05:15:47.967Z,20.7
2016-04-13T05:16:06.248Z,20.6
2016-04-13T05:16:24.513Z,20.7
2016-04-13T05:16:42.813Z,20.7
2016-04-13T05:17:01.095Z,20.7
2016-04-13T05:17:19.376Z,20.7
2016-04-13T05:17:37.660Z,20.7
2016-04-13T05:17:55.926Z,20.7
2016-04-13T05:18:14.223Z,20.7
2016-04-13T05:18:32.491Z,20.7
2016-04-13T05:18:50.772Z,20.7
2016-04-13T05:19:09.038Z,20.7
2016-04-13T05:19:27.319Z,20.8
2016-04-13T05:19:45.604Z,20.8
2016-04-13T05:20:03.869Z,20.8
2016-04-13T05:20:22.150Z,20.7
2016-04-13T05:20:40.434Z,20.7
2016-04-13T05:20:58.715Z,20.7
2016-04-13T05:21:16.981Z,20.8
2016-04-13T05:21:35.281Z,20.8
2016-04-13T05:21:53.578Z,20.8
2016-04-13T05:22:11.813Z,20.8
2016-04-13T05:22:30.094Z,20.8
2016-04-13T05:22:48.220Z,20.8
2016-04-13T05:23:06.532Z,20.8
2016-04-13T05:23:24.767Z,20.8
2016-04-13T05:23:43.051Z,20.6
2016-04-13T05:24:01.160Z,20.7
2016-04-13T05:24:19.442Z,20.7
2016-04-13T05:24:37.726Z,20.7
2016-04-13T05:24:56.007Z,20.7
2016-04-13T05:25:14.288Z,20.7
2016-04-13T05:25:32.588Z,20.7
2016-04-13T05:25:50.870Z,20.8
2016-04-13T05:26:09.370Z,20.8
2016-04-13T05:26:27.432Z,20.8
2016-04-13T05:26:45.716Z,20.8
2016-04-13T05:27:03.982Z,20.8
2016-04-13T05:27:22.263Z,20.8
2016-04-13T05:27:40.562Z,20.8
2016-04-13T05:27:58.843Z,20.8
2016-04-13T05:28:17.093Z,20.7
2016-04-13T05:28:35.378Z,20.8
2016-04-13T05:28:53.706Z,20.8
2016-04-13T05:29:11.987Z,20.9
2016-04-13T05:29:30.315Z,20.9
2016-04-13T05:29:48.599Z,20.8
2016-04-13T05:30:06.881Z,20.8
2016-04-13T05:30:25.162Z,20.9
2016-04-13T05:30:43.445Z,20.8
2016-04-13T05:31:01.742Z,20.8
2016-04-13T05:31:20.008Z,20.8
2016-04-13T05:31:38.292Z,20.7
2016-04-13T05:31:56.573Z,20.7
2016-04-13T05:32:14.854Z,20.6
2016-04-13T05:32:33.138Z,20.5
2016-04-13T05:32:51.434Z,20.5
2016-04-13T05:33:09.700Z,20.5
2016-04-13T05:33:27.966Z,20.6
2016-04-13T05:33:46.235Z,20.3
2016-04-13T05:34:04.517Z,20.4
2016-04-13T05:34:22.782Z,20.5
2016-04-13T05:34:41.065Z,20.6
2016-04-13T05:34:59.347Z,20.6
2016-04-13T05:35:17.628Z,20.6
2016-04-13T05:35:35.928Z,20.6
2016-04-13T05:35:54.193Z,20.7
2016-04-13T05:36:12.475Z,20.7
2016-04-13T05:36:30.740Z,20.7
2016-04-13T05:36:49.039Z,20.8
2016-04-13T05:37:07.008Z,20.8
2016-04-13T05:37:25.305Z,20.8
2016-04-13T05:37:43.573Z,20.8
2016-04-13T05:38:01.714Z,20.8
2016-04-13T05:38:19.964Z,20.8
2016-04-13T05:38:38.247Z,20.8
2016-04-13T05:38:56.529Z,20.8
2016-04-13T05:39:14.810Z,20.8
2016-04-13T05:39:33.095Z,20.8
2016-04-13T05:39:51.361Z,20.7
2016-04-13T05:40:09.626Z,20.6
2016-04-13T05:40:27.908Z,20.6
2016-04-13T05:40:46.191Z,20.6
2016-04-13T05:41:04.488Z,20.7
2016-04-13T05:41:22.769Z,20.7
2016-04-13T05:41:41.053Z,20.7
2016-04-13T05:41:59.319Z,20.7
2016-04-13T05:42:17.584Z,20.7
2016-04-13T05:42:35.852Z,20.7
2016-04-13T05:42:54.165Z,20.7
2016-04-13T05:43:12.415Z,20.7
2016-04-13T05:43:30.696Z,20.8
2016-04-13T05:43:48.980Z,20.8
2016-04-13T05:44:07.277Z,20.8
2016-04-13T05:44:25.543Z,20.8
2016-04-13T05:44:43.811Z,20.8
2016-04-13T05:45:02.077Z,20.8
2016-04-13T05:45:20.358Z,20.8
2016-04-13T05:45:38.657Z,20.8
2016-04-13T05:45:56.907Z,20.9
2016-04-13T05:46:15.188Z,20.8
2016-04-13T05:46:33.488Z,20.7
2016-04-13T05:46:51.769Z,20.8
2016-04-13T05:47:10.035Z,20.8
2016-04-13T05:47:28.316Z,20.8
2016-04-13T05:47:46.600Z,20.8
2016-04-13T05:48:04.882Z,20.7
2016-04-13T05:48:23.147Z,20.7
2016-04-13T05:48:41.431Z,20.7
2016-04-13T05:48:59.712Z,20.8
2016-04-13T05:49:17.977Z,20.8
2016-04-13T05:49:36.262Z,20.8
2016-04-13T05:49:54.574Z,20.8
2016-04-13T05:50:12.746Z,20.7
2016-04-13T05:50:31.012Z,20.6
2016-04-13T05:50:49.280Z,20.6
2016-04-13T05:51:07.577Z,20.7
2016-04-13T05:51:25.858Z,20.6
2016-04-13T05:51:43.470Z,20.6
2016-04-13T05:52:01.767Z,20.7
2016-04-13T05:52:20.032Z,20.7
2016-04-13T05:52:38.332Z,20.7
2016-04-13T05:52:56.598Z,20.8
2016-04-13T05:53:16.457Z,20.8
2016-04-13T05:53:34.774Z,20.8
2016-04-13T05:53:53.055Z,20.8
2016-04-13T05:54:11.336Z,20.7
2016-04-13T05:54:29.602Z,20.3
2016-04-13T05:54:47.885Z,19.9
2016-04-13T05:55:06.151Z,19.8
2016-04-13T05:55:24.448Z,19.5
2016-04-13T05:55:42.715Z,19.6
2016-04-13T05:56:01.012Z,19.8
2016-04-13T05:56:19.434Z,19.9
2016-04-13T05:56:37.718Z,20
2016-04-13T05:56:55.999Z,20.1
2016-04-13T05:57:14.265Z,20.2
2016-04-13T05:57:32.562Z,20.2
2016-04-13T05:57:50.831Z,20.1
2016-04-13T05:58:09.112Z,20.1
2016-04-13T05:58:27.393Z,19.9
2016-04-13T05:58:45.662Z,19.9
2016-04-13T05:59:03.943Z,19.9
2016-04-13T05:59:22.209Z,20
2016-04-13T05:59:40.617Z,20.1
2016-04-13T05:59:58.836Z,20.1
2016-04-13T06:00:21.148Z,20.1
2016-04-13T06:00:39.432Z,20.1
2016-04-13T06:00:57.604Z,20
2016-04-13T06:01:15.776Z,20
2016-04-13T06:01:34.060Z,20
2016-04-13T06:01:52.326Z,20
2016-04-13T06:02:10.592Z,20.1
2016-04-13T06:02:28.873Z,20.1
2016-04-13T06:02:47.156Z,20.2
2016-04-13T06:03:04.765Z,20.1
2016-04-13T06:03:23.078Z,20
2016-04-13T06:03:41.347Z,20.1
2016-04-13T06:03:59.628Z,20.1
2016-04-13T06:04:17.737Z,20.2
2016-04-13T06:04:36.020Z,20.2
2016-04-13T06:04:54.458Z,20.1
2016-04-13T06:05:12.739Z,20.2
2016-04-13T06:05:31.020Z,20.1
2016-04-13T06:05:49.290Z,20
2016-04-13T06:06:07.571Z,20.1
2016-04-13T06:06:25.899Z,20
2016-04-13T06:06:44.167Z,20
2016-04-13T06:07:02.511Z,20.1
2016-04-13T06:07:20.714Z,20.1
2016-04-13T06:07:38.998Z,19.7
2016-04-13T06:07:57.279Z,19.7
2016-04-13T06:08:15.576Z,19.7
2016-04-13T06:08:33.826Z,19.8
2016-04-13T06:08:52.126Z,19.9
2016-04-13T06:09:10.392Z,20
2016-04-13T06:09:28.673Z,20
2016-04-13T06:09:46.941Z,20.1
2016-04-13T06:10:05.238Z,20.1
2016-04-13T06:10:23.519Z,20.1
2016-04-13T06:10:41.803Z,19.7
2016-04-13T06:11:00.084Z,19.7
2016-04-13T06:11:18.194Z,19.8
2016-04-13T06:11:36.509Z,19.8
2016-04-13T06:11:54.790Z,19.8
2016-04-13T06:12:13.087Z,19.9
2016-04-13T06:12:31.353Z,19.8
2016-04-13T06:12:49.653Z,19.8
2016-04-13T06:13:07.934Z,19.8
2016-04-13T06:13:26.247Z,19.9
2016-04-13T06:13:44.514Z,20
2016-04-13T06:14:02.842Z,19.9
2016-04-13T06:14:21.139Z,19.8
2016-04-13T06:14:39.422Z,19.9
2016-04-13T06:14:57.594Z,20
2016-04-13T06:15:15.891Z,20.1
2016-04-13T06:15:34.157Z,20
2016-04-13T06:15:52.457Z,19.9
2016-04-13T06:16:10.738Z,19.8
2016-04-13T06:16:29.035Z,19.8
2016-04-13T06:16:47.319Z,19.9
2016-04-13T06:17:05.600Z,20
2016-04-13T06:17:23.866Z,20
2016-04-13T06:17:42.118Z,20
2016-04-13T06:18:00.399Z,19.9
2016-04-13T06:18:18.680Z,20
2016-04-13T06:18:36.965Z,19.9
2016-04-13T06:18:55.246Z,20
2016-04-13T06:19:13.512Z,20.1
2016-04-13T06:19:31.808Z,20.1
2016-04-13T06:19:50.077Z,20.2
2016-04-13T06:20:11.655Z,20.3
2016-04-13T06:20:28.702Z,20.3
2016-04-13T06:20:46.986Z,20.3
2016-04-13T06:21:05.252Z,20.3
2016-04-13T06:21:23.533Z,20.3
2016-04-13T06:21:41.863Z,20.4
2016-04-13T06:22:00.145Z,20.4
2016-04-13T06:22:18.426Z,20.3
2016-04-13T06:22:36.711Z,20.3
2016-04-13T06:22:54.992Z,20.4
2016-04-13T06:23:13.274Z,20.4
2016-04-13T06:23:31.555Z,20.1
2016-04-13T06:23:49.822Z,20.2
2016-04-13T06:24:08.104Z,20.3
2016-04-13T06:24:26.385Z,20.3
2016-04-13T06:24:44.668Z,20.3
2016-04-13T06:25:03.059Z,20.3
2016-04-13T06:25:21.340Z,20.4
2016-04-13T06:25:39.624Z,20.4
2016-04-13T06:25:57.906Z,20.4
2016-04-13T06:26:16.202Z,20.5
2016-04-13T06:26:34.484Z,20.5
2016-04-13T06:26:52.752Z,20.4
2016-04-13T06:27:11.034Z,20.5
2016-04-13T06:27:29.299Z,20.5
2016-04-13T06:27:47.443Z,20.3
2016-04-13T06:28:05.724Z,20.3
2016-04-13T06:28:23.990Z,20.4
2016-04-13T06:28:42.273Z,20.4
2016-04-13T06:28:59.898Z,20.4
2016-04-13T06:29:18.164Z,20.5
2016-04-13T06:29:36.338Z,20.5
2016-04-13T06:29:54.620Z,20.5
2016-04-13T06:30:12.901Z,20.5
2016-04-13T06:30:31.167Z,20.5
2016-04-13T06:30:49.435Z,20.5
2016-04-13T06:31:07.716Z,20.5
2016-04-13T06:31:25.998Z,20.5
2016-04-13T06:31:44.281Z,20.5
2016-04-13T06:32:02.547Z,20.5
2016-04-13T06:32:20.828Z,20.5
2016-04-13T06:32:39.143Z,20.5
2016-04-13T06:32:57.456Z,20.5
2016-04-13T06:33:15.737Z,20.5
2016-04-13T06:33:34.034Z,20.5
2016-04-13T06:33:52.302Z,20.5
2016-04-13T06:34:10.598Z,20.5
2016-04-13T06:34:28.880Z,20.5
2016-04-13T06:34:47.164Z,20.5
2016-04-13T06:35:05.430Z,20.5
2016-04-13T06:35:23.695Z,20.4
2016-04-13T06:35:41.979Z,20.4
2016-04-13T06:36:00.276Z,20.4
2016-04-13T06:36:18.558Z,20.1
2016-04-13T06:36:36.669Z,20
2016-04-13T06:36:54.935Z,20.1
2016-04-13T06:37:13.060Z,20.2
2016-04-13T06:37:31.341Z,20.2
2016-04-13T06:37:49.642Z,19.9
2016-04-13T06:38:07.923Z,20
2016-04-13T06:38:26.204Z,20
2016-04-13T06:38:44.472Z,20
2016-04-13T06:39:02.753Z,20
2016-04-13T06:39:21.034Z,20
2016-04-13T06:39:39.318Z,20
2016-04-13T06:39:57.599Z,20.1
2016-04-13T06:40:15.911Z,20.1
2016-04-13T06:40:34.177Z,20.1
2016-04-13T06:40:52.478Z,20.1
2016-04-13T06:41:10.759Z,20.2
2016-04-13T06:41:29.025Z,20.2
2016-04-13T06:41:47.324Z,20.3
2016-04-13T06:42:05.589Z,20.3
2016-04-13T06:42:23.870Z,20.3
2016-04-13T06:42:42.155Z,20.4
2016-04-13T06:43:00.420Z,20.4
2016-04-13T06:43:18.702Z,20.4
2016-04-13T06:43:37.016Z,20.3
2016-04-13T06:43:55.297Z,20.3
2016-04-13T06:44:13.610Z,20.3
2016-04-13T06:44:31.875Z,20.3
2016-04-13T06:44:50.160Z,20.4
2016-04-13T06:45:08.441Z,20.4
2016-04-13T06:45:26.738Z,20.4
2016-04-13T06:45:45.022Z,20.4
2016-04-13T06:46:03.288Z,20.5
2016-04-13T06:46:21.553Z,20.5
2016-04-13T06:46:39.838Z,20.5
2016-04-13T06:46:58.119Z,20.6
2016-04-13T06:47:16.400Z,20.6
2016-04-13T06:47:34.666Z,20.6
2016-04-13T06:47:52.965Z,20.6
2016-04-13T06:48:11.230Z,20.7
2016-04-13T06:48:29.511Z,20.7
2016-04-13T06:48:47.811Z,20.7
2016-04-13T06:49:06.108Z,20.8
2016-04-13T06:49:24.374Z,20.8
2016-04-13T06:49:42.641Z,20.8
2016-04-13T06:50:00.923Z,20.8
2016-04-13T06:50:19.188Z,20.8
2016-04-13T06:50:37.489Z,20.9
2016-04-13T06:50:55.755Z,20.9
2016-04-13T06:51:14.036Z,20.9
2016-04-13T06:51:32.302Z,20.9
2016-04-13T06:51:50.601Z,21
2016-04-13T06:52:08.710Z,21
2016-04-13T06:52:26.991Z,21
2016-04-13T06:52:45.260Z,21
2016-04-13T06:53:03.541Z,21
2016-04-13T06:53:21.807Z,21
2016-04-13T06:53:40.090Z,21
2016-04-13T06:53:58.356Z,21
2016-04-13T06:54:16.606Z,21.1
2016-04-13T06:54:34.887Z,21
2016-04-13T06:54:53.062Z,21
2016-04-13T06:55:11.327Z,21
2016-04-13T06:55:29.609Z,21
2016-04-13T06:55:47.877Z,21.1
2016-04-13T06:56:06.143Z,21.1
2016-04-13T06:56:24.424Z,21.1
2016-04-13T06:56:42.708Z,21.1
2016-04-13T06:57:01.036Z,21.1
2016-04-13T06:57:19.380Z,21.1
2016-04-13T06:57:37.648Z,21.1
2016-04-13T06:57:55.976Z,21.2
2016-04-13T06:58:14.242Z,21.2
2016-04-13T06:58:32.507Z,21.2
2016-04-13T06:58:50.791Z,21.2
2016-04-13T06:59:09.073Z,21.2
2016-04-13T06:59:27.354Z,21.2
2016-04-13T06:59:45.623Z,21.2
2016-04-13T07:00:03.904Z,21.2
2016-04-13T07:00:22.185Z,21.2
2016-04-13T07:00:40.453Z,21.2
2016-04-13T07:00:58.734Z,21.2
2016-04-13T07:01:17.015Z,21.2
2016-04-13T07:01:35.281Z,21.2
2016-04-13T07:01:53.565Z,21.2
2016-04-13T07:02:11.846Z,21.3
2016-04-13T07:02:30.112Z,21.3
2016-04-13T07:02:48.381Z,21.3
2016-04-13T07:03:06.677Z,21.3
2016-04-13T07:03:24.943Z,21.3
2016-04-13T07:03:43.242Z,21.3
2016-04-13T07:04:01.523Z,21.3
2016-04-13T07:04:19.633Z,21.3
2016-04-13T07:04:37.917Z,21.3
2016-04-13T07:04:56.182Z,21.3
2016-04-13T07:05:14.448Z,21.3
2016-04-13T07:05:32.729Z,21.3
2016-04-13T07:05:51.014Z,21.3
2016-04-13T07:06:09.279Z,21.3
2016-04-13T07:06:27.560Z,21.3
2016-04-13T07:06:45.828Z,21.3
2016-04-13T07:07:04.109Z,21.3
2016-04-13T07:07:22.109Z,21.4
2016-04-13T07:07:40.394Z,21.4
2016-04-13T07:07:58.675Z,21.4
2016-04-13T07:08:16.784Z,21.4
2016-04-13T07:08:35.081Z,21.4
2016-04-13T07:08:53.349Z,21.4
2016-04-13T07:09:11.630Z,21.5
2016-04-13T07:09:29.755Z,21.4
2016-04-13T07:09:48.024Z,21.5
2016-04-13T07:10:06.149Z,21.5
2016-04-13T07:10:24.461Z,21.5
2016-04-13T07:10:42.761Z,21.5
2016-04-13T07:11:01.027Z,21.5
2016-04-13T07:11:19.167Z,21.5
2016-04-13T07:11:37.450Z,21.5
2016-04-13T07:11:55.763Z,21.5
2016-04-13T07:12:14.075Z,21.5
2016-04-13T07:12:32.372Z,21.5
2016-04-13T07:12:50.688Z,21.6
2016-04-13T07:13:08.985Z,21.5
2016-04-13T07:13:26.594Z,21.5
2016-04-13T07:13:44.863Z,21.6
2016-04-13T07:14:03.144Z,21.6
2016-04-13T07:14:21.410Z,21.6
2016-04-13T07:14:39.678Z,21.6
2016-04-13T07:14:57.975Z,21.6
2016-04-13T07:15:16.241Z,21.6
2016-04-13T07:15:34.538Z,21.6
2016-04-13T07:15:52.822Z,21.6
2016-04-13T07:16:11.103Z,21.6
2016-04-13T07:16:29.369Z,21.6
2016-04-13T07:16:47.668Z,21.6
2016-04-13T07:17:05.949Z,21.6
2016-04-13T07:17:24.230Z,21.6
2016-04-13T07:17:42.499Z,21.6
2016-04-13T07:18:00.796Z,21.6
2016-04-13T07:18:19.077Z,21.7
2016-04-13T07:18:37.361Z,21.7
2016-04-13T07:18:55.642Z,21.7
2016-04-13T07:19:13.939Z,21.7
2016-04-13T07:19:32.236Z,21.7
2016-04-13T07:19:50.472Z,21.7
2016-04-13T07:20:08.754Z,21.7
2016-04-13T07:20:27.035Z,21.7
2016-04-13T07:20:45.305Z,21.7
2016-04-13T07:21:03.617Z,21.7
2016-04-13T07:21:21.883Z,21.7
2016-04-13T07:21:40.166Z,21.7
2016-04-13T07:21:58.447Z,21.7
2016-04-13T07:22:16.744Z,21.7
2016-04-13T07:22:35.010Z,21.7
2016-04-13T07:22:53.310Z,21.7
2016-04-13T07:23:11.575Z,21.7
2016-04-13T07:23:29.841Z,21.8
2016-04-13T07:23:48.125Z,21.8
2016-04-13T07:24:06.391Z,21.8
2016-04-13T07:24:24.703Z,21.8
2016-04-13T07:24:42.986Z,21.8
2016-04-13T07:25:01.252Z,21.8
2016-04-13T07:25:19.533Z,21.8
2016-04-13T07:25:37.802Z,21.8
2016-04-13T07:25:56.083Z,21.8
2016-04-13T07:26:14.364Z,21.8
2016-04-13T07:26:32.630Z,21.8
2016-04-13T07:26:50.898Z,21.8
2016-04-13T07:27:09.179Z,21.8
2016-04-13T07:27:27.460Z,21.8
2016-04-13T07:27:45.588Z,21.8
2016-04-13T07:28:03.869Z,21.8
2016-04-13T07:28:22.135Z,21.8
2016-04-13T07:28:40.419Z,21.8
2016-04-13T07:28:58.701Z,21.8
2016-04-13T07:29:16.966Z,21.8
2016-04-13T07:29:35.263Z,21.8
2016-04-13T07:29:53.531Z,21.8
2016-04-13T07:30:11.812Z,21.8
2016-04-13T07:30:30.093Z,21.9
2016-04-13T07:30:48.377Z,21.8
2016-04-13T07:31:06.549Z,21.9
2016-04-13T07:31:24.846Z,21.8
2016-04-13T07:31:43.129Z,21.9
2016-04-13T07:32:01.426Z,21.9
2016-04-13T07:32:19.708Z,21.9
2016-04-13T07:32:38.226Z,21.9
2016-04-13T07:32:56.492Z,21.9
2016-04-13T07:33:14.757Z,21.9
2016-04-13T07:33:33.039Z,21.9
2016-04-13T07:33:51.323Z,21.9
2016-04-13T07:34:09.620Z,21.9
2016-04-13T07:34:27.901Z,21.9
2016-04-13T07:34:46.216Z,21.9
2016-04-13T07:35:04.481Z,21.9
2016-04-13T07:35:22.778Z,21.9
2016-04-13T07:35:41.063Z,21.9
2016-04-13T07:35:59.329Z,21.9
2016-04-13T07:36:17.610Z,21.9
2016-04-13T07:36:35.891Z,21.9
2016-04-13T07:36:54.175Z,21.9
2016-04-13T07:37:12.143Z,21.9
2016-04-13T07:37:30.409Z,21.9
2016-04-13T07:37:48.693Z,21.9
2016-04-13T07:38:06.975Z,22
2016-04-13T07:38:25.240Z,22
2016-04-13T07:38:43.524Z,22
2016-04-13T07:39:01.806Z,22
2016-04-13T07:39:20.087Z,22
2016-04-13T07:39:38.370Z,22
2016-04-13T07:39:56.667Z,22
2016-04-13T07:40:14.792Z,22
2016-04-13T07:40:33.058Z,22
2016-04-13T07:40:51.358Z,22
2016-04-13T07:41:09.623Z,22
2016-04-13T07:41:27.936Z,22
2016-04-13T07:41:46.189Z,22
2016-04-13T07:42:04.454Z,22
2016-04-13T07:42:22.720Z,22
2016-04-13T07:42:40.988Z,22
2016-04-13T07:42:59.284Z,22
2016-04-13T07:43:17.566Z,22
2016-04-13T07:43:35.831Z,22
2016-04-13T07:43:54.100Z,22
2016-04-13T07:44:12.381Z,22
2016-04-13T07:44:30.662Z,22
2016-04-13T07:44:48.930Z,22
2016-04-13T07:45:07.196Z,22
2016-04-13T07:45:25.477Z,22
2016-04-13T07:45:43.777Z,22
2016-04-13T07:46:02.042Z,22
2016-04-13T07:46:20.308Z,22
2016-04-13T07:46:38.577Z,22
2016-04-13T07:46:56.842Z,22
2016-04-13T07:47:15.108Z,22
2016-04-13T07:47:33.389Z,22
2016-04-13T07:47:51.672Z,22
2016-04-13T07:48:10.001Z,22
2016-04-13T07:48:28.266Z,22
2016-04-13T07:48:46.566Z,22
2016-04-13T07:49:04.832Z,22
2016-04-13T07:49:23.097Z,22.1
2016-04-13T07:49:41.397Z,22
2016-04-13T07:49:59.663Z,22
2016-04-13T07:50:17.944Z,22
2016-04-13T07:50:36.194Z,22.1
2016-04-13T07:50:54.478Z,22.1
2016-04-13T07:51:12.744Z,22.1
2016-04-13T07:51:31.025Z,22.1
2016-04-13T07:51:49.294Z,22.1
2016-04-13T07:52:07.575Z,22.1
2016-04-13T07:52:25.841Z,22.1
2016-04-13T07:52:44.140Z,22.1
2016-04-13T07:53:02.405Z,22.1
2016-04-13T07:53:20.686Z,22.1
2016-04-13T07:53:38.971Z,22.1
2016-04-13T07:53:57.252Z,22.1
2016-04-13T07:54:15.518Z,22.1
2016-04-13T07:54:33.783Z,22.1
2016-04-13T07:54:52.145Z,22.1
2016-04-13T07:55:10.441Z,22.1
2016-04-13T07:55:28.691Z,22.1
2016-04-13T07:55:46.976Z,22.1
2016-04-13T07:56:05.257Z,22.1
2016-04-13T07:56:23.523Z,22.1
2016-04-13T07:56:41.822Z,22.1
2016-04-13T07:56:59.994Z,22.1
2016-04-13T07:57:18.276Z,22.1
2016-04-13T07:57:36.559Z,22.1
2016-04-13T07:57:54.840Z,22.1
2016-04-13T07:58:13.121Z,22.1
2016-04-13T07:58:31.403Z,22.1
2016-04-13T07:58:49.657Z,22.1
2016-04-13T07:59:07.953Z,22.2
2016-04-13T07:59:26.235Z,22.2
2016-04-13T07:59:44.502Z,22.2
2016-04-13T08:00:02.799Z,22.2
2016-04-13T08:00:21.127Z,22.2
2016-04-13T08:00:39.396Z,22.2
2016-04-13T08:00:57.693Z,22.2
2016-04-13T08:01:15.974Z,22.2
2016-04-13T08:01:34.240Z,22.2
2016-04-13T08:01:52.555Z,22.2
2016-04-13T08:02:10.805Z,22.2
2016-04-13T08:02:29.055Z,22.2
2016-04-13T08:02:47.354Z,22.2
2016-04-13T08:03:05.620Z,22.2
2016-04-13T08:03:23.901Z,22.2
2016-04-13T08:03:42.170Z,22.2
2016-04-13T08:04:00.591Z,22.2
2016-04-13T08:04:18.779Z,22.2
2016-04-13T08:04:37.093Z,22.2
2016-04-13T08:04:55.375Z,22.2
2016-04-13T08:05:13.656Z,22.2
2016-04-13T08:05:31.984Z,22.2
2016-04-13T08:05:50.253Z,22.2
2016-04-13T08:06:08.565Z,22.2
2016-04-13T08:06:26.831Z,22.2
2016-04-13T08:06:45.099Z,22.3
2016-04-13T08:07:03.428Z,22.3
2016-04-13T08:07:21.521Z,22.3
2016-04-13T08:07:39.789Z,22.3
2016-04-13T08:07:58.086Z,22.3
2016-04-13T08:08:16.372Z,22.3
2016-04-13T08:08:34.497Z,22.3
2016-04-13T08:08:52.625Z,22.3
2016-04-13T08:09:10.906Z,22.3
2016-04-13T08:09:29.172Z,22.3
2016-04-13T08:09:47.455Z,22.3
2016-04-13T08:10:05.721Z,22.3
2016-04-13T08:10:23.986Z,22.3
2016-04-13T08:10:42.271Z,22.3
2016-04-13T08:11:00.552Z,22.3
2016-04-13T08:11:18.833Z,22.3
2016-04-13T08:11:36.505Z,22.3
2016-04-13T08:11:54.774Z,22.3
2016-04-13T08:12:13.055Z,22.3
2016-04-13T08:12:31.320Z,22.3
2016-04-13T08:12:49.619Z,22.3
2016-04-13T08:13:07.869Z,22.3
2016-04-13T08:13:26.182Z,22.3
2016-04-13T08:13:44.451Z,22.3
2016-04-13T08:14:02.733Z,22.3
2016-04-13T08:14:20.998Z,22.4
2016-04-13T08:14:39.297Z,22.3
2016-04-13T08:14:57.578Z,22.4
2016-04-13T08:15:15.860Z,22.4
2016-04-13T08:15:34.188Z,22.4
2016-04-13T08:15:52.456Z,22.4
2016-04-13T08:16:10.738Z,22.4
2016-04-13T08:16:29.019Z,22.4
2016-04-13T08:16:47.303Z,22.4
2016-04-13T08:17:05.569Z,22.4
2016-04-13T08:17:23.866Z,22.4
2016-04-13T08:17:42.133Z,22.4
2016-04-13T08:18:00.290Z,22.4
2016-04-13T08:18:18.555Z,22.4
2016-04-13T08:18:36.824Z,22.4
2016-04-13T08:18:55.105Z,22.4
2016-04-13T08:19:13.371Z,22.4
2016-04-13T08:19:31.652Z,22.4
2016-04-13T08:19:49.967Z,22.4
2016-04-13T08:20:08.233Z,22.4
2016-04-13T08:20:26.499Z,22.4
2016-04-13T08:20:44.782Z,22.4
2016-04-13T08:21:02.969Z,22.4
2016-04-13T08:21:21.251Z,22.4
2016-04-13T08:21:39.519Z,22.4
2016-04-13T08:21:57.801Z,22.5
2016-04-13T08:22:16.019Z,22.5
2016-04-13T08:22:34.222Z,22.5
2016-04-13T08:22:52.475Z,22.5
2016-04-13T08:23:10.757Z,22.5
2016-04-13T08:23:29.038Z,22.5
2016-04-13T08:23:47.322Z,22.5
2016-04-13T08:24:05.588Z,22.5
2016-04-13T08:24:23.885Z,22.5
2016-04-13T08:24:42.153Z,22.5
2016-04-13T08:25:00.435Z,22.5
2016-04-13T08:25:18.716Z,22.5
2016-04-13T08:25:36.999Z,22.5
2016-04-13T08:25:55.280Z,22.6
2016-04-13T08:26:13.530Z,22.6
2016-04-13T08:26:31.827Z,22.6
2016-04-13T08:26:50.111Z,22.6
2016-04-13T08:27:08.221Z,22.6
2016-04-13T08:27:26.502Z,22.6
2016-04-13T08:27:44.785Z,22.6
2016-04-13T08:28:03.067Z,22.6
2016-04-13T08:28:21.348Z,22.6
2016-04-13T08:28:39.663Z,22.6
2016-04-13T08:28:57.945Z,22.6
2016-04-13T08:29:16.288Z,22.6
2016-04-13T08:29:34.554Z,22.6
2016-04-13T08:29:52.760Z,22.6
2016-04-13T08:30:11.041Z,22.6
2016-04-13T08:30:29.323Z,22.6
2016-04-13T08:30:47.621Z,22.6
2016-04-13T08:31:05.887Z,22.6
2016-04-13T08:31:24.184Z,22.6
2016-04-13T08:31:42.546Z,22.6
2016-04-13T08:32:00.828Z,22.6
2016-04-13T08:32:19.656Z,22.6
2016-04-13T08:32:38.001Z,22.6
2016-04-13T08:32:56.376Z,22.6
2016-04-13T08:33:13.986Z,22.6
2016-04-13T08:33:32.345Z,22.6
2016-04-13T08:33:50.676Z,22.6
2016-04-13T08:34:08.958Z,22.6
2016-04-13T08:34:27.286Z,22.6
2016-04-13T08:34:45.554Z,22.6
2016-04-13T08:35:03.836Z,22.6
2016-04-13T08:35:21.961Z,22.6
2016-04-13T08:35:40.244Z,22.6
2016-04-13T08:35:58.509Z,22.6
2016-04-13T08:36:16.806Z,22.7
2016-04-13T08:36:35.072Z,22.7
2016-04-13T08:36:53.373Z,22.7
2016-04-13T08:37:11.701Z,22.7
2016-04-13T08:37:29.607Z,22.8
2016-04-13T08:37:47.875Z,22.8
2016-04-13T08:38:06.172Z,22.8
2016-04-13T08:38:24.437Z,22.7
2016-04-13T08:38:42.581Z,22.8
2016-04-13T08:39:00.862Z,22.7
2016-04-13T08:39:19.128Z,22.7
2016-04-13T08:39:37.411Z,22.7
2016-04-13T08:39:55.677Z,22.7
2016-04-13T08:40:13.958Z,22.7
2016-04-13T08:40:32.224Z,22.7
2016-04-13T08:40:50.414Z,22.7
2016-04-13T08:41:08.680Z,22.7
2016-04-13T08:41:26.945Z,22.7
2016-04-13T08:41:45.230Z,22.7
2016-04-13T08:42:03.511Z,22.7
2016-04-13T08:42:21.776Z,22.7
2016-04-13T08:42:40.060Z,22.7
2016-04-13T08:42:58.325Z,22.6
2016-04-13T08:43:16.607Z,22.6
2016-04-13T08:43:34.888Z,22.6
2016-04-13T08:43:53.172Z,22.6
2016-04-13T08:44:11.438Z,22.6
2016-04-13T08:44:29.719Z,22.7
2016-04-13T08:44:48.002Z,22.6
2016-04-13T08:45:06.268Z,22.6
2016-04-13T08:45:24.549Z,22.6
2016-04-13T08:45:42.833Z,22.6
2016-04-13T08:46:01.177Z,22.6
2016-04-13T08:46:19.411Z,22.6
2016-04-13T08:46:37.664Z,22.6
2016-04-13T08:46:55.977Z,22.6
2016-04-13T08:47:14.243Z,22.7
2016-04-13T08:47:32.539Z,22.7
2016-04-13T08:47:50.824Z,22.7
2016-04-13T08:48:09.105Z,22.6
2016-04-13T08:48:27.386Z,22.7
2016-04-13T08:48:45.655Z,22.7